Terminal Aerodrome Forecast
Issued by NWS Quad Cities IA IL

Home | Current Version | Previous Version | Text Only | Print | Product List | Glossary On
Versions: 1 2 3 4 5 6 7 8 9 10 11 12 13 14 15 16 17 18 19
000
FTUS43 KDVN 131131
TAFDBQ
TAF
KDBQ 131131Z 1312/1412 18015KT P6SM SCT090 BKN200
     FM131500 23014G18KT P6SM SCT090 BKN200
     FM131700 29020G26KT P6SM BKN080 BKN200
     FM131900 31020G30KT P6SM SCT027 OVC035
     FM140200 33017G24KT P6SM SCT022 OVC035
     FM140700 35013KT P6SM BKN035=

USA.gov is the U.S. government's official web portal to all federal, state and local government web resources and services.